Duncan, South Carolina
Current Conditions -  °F | °C
As of 6:58 AM on Monday 24 Nov 2014 (Local Time) from KGSP Reporting Station
Overcast Overcast  
Wind Chill: 59°   Ceiling: 1400
Heat Index: 59°   Visibility: 10mi
Dew Point: 57°   Wind: 15mph
Humidity: 93%   Direction: 220°SW
Pressure: 29.76"   Gusts: NA
Location:  34.94°N, 82.14°W
Report Text: KGSP 241158Z 22013KT 10SM FEW009 BKN014 OVC035 15/14 A2976 RMK AO2 T01500139
Loading
Personal Weather Stations






























Interactive Weather Map New forecast layout! Learn more

10-Day Weather Forecast

Advertisements
Track Severe Weather on mobile